sensor_id;sensor_type;location;lat;lon;timestamp;pressure;altitude;pressure_sealevel;temperature
20736;BMP180;10528;52.124;5.196;2022-11-15T00:00:25;100722.00;;;13.60
20736;BMP180;10528;52.124;5.196;2022-11-15T00:03:17;100717.00;;;13.50
20736;BMP180;10528;52.124;5.196;2022-11-15T00:06:04;100705.00;;;13.60
20736;BMP180;10528;52.124;5.196;2022-11-15T00:08:49;100702.00;;;13.60
20736;BMP180;10528;52.124;5.196;2022-11-15T00:11:35;100702.00;;;13.50
20736;BMP180;10528;52.124;5.196;2022-11-15T00:14:21;100713.00;;;13.60
20736;BMP180;10528;52.124;5.196;2022-11-15T00:17:07;100705.00;;;13.60
20736;BMP180;10528;52.124;5.196;2022-11-15T00:19:52;100695.00;;;13.60
20736;BMP180;10528;52.124;5.196;2022-11-15T00:22:38;100709.00;;;13.60
20736;BMP180;10528;52.124;5.196;2022-11-15T00:25:24;100695.00;;;13.50
20736;BMP180;10528;52.124;5.196;2022-11-15T00:28:10;100695.00;;;13.50
20736;BMP180;10528;52.124;5.196;2022-11-15T00:31:09;100695.00;;;13.50
20736;BMP180;10528;52.124;5.196;2022-11-15T00:33:55;100696.00;;;13.50
20736;BMP180;10528;52.124;5.196;2022-11-15T00:36:41;100701.00;;;13.50
20736;BMP180;10528;52.124;5.196;2022-11-15T00:39:26;100687.00;;;13.50
20736;BMP180;10528;52.124;5.196;2022-11-15T00:42:12;100679.00;;;13.50
20736;BMP180;10528;52.124;5.196;2022-11-15T00:44:57;100682.00;;;13.50
20736;BMP180;10528;52.124;5.196;2022-11-15T00:47:46;100670.00;;;13.50
20736;BMP180;10528;52.124;5.196;2022-11-15T00:50:32;100677.00;;;13.50
20736;BMP180;10528;52.124;5.196;2022-11-15T00:53:17;100685.00;;;13.50
20736;BMP180;10528;52.124;5.196;2022-11-15T00:56:03;100679.00;;;13.50
20736;BMP180;10528;52.124;5.196;2022-11-15T00:58:49;100663.00;;;13.50
20736;BMP180;10528;52.124;5.196;2022-11-15T01:01:34;100667.00;;;13.60
20736;BMP180;10528;52.124;5.196;2022-11-15T01:04:20;100671.00;;;13.60
20736;BMP180;10528;52.124;5.196;2022-11-15T01:07:05;100662.00;;;13.60
20736;BMP180;10528;52.124;5.196;2022-11-15T01:09:51;100668.00;;;13.60
20736;BMP180;10528;52.124;5.196;2022-11-15T01:12:36;100657.00;;;13.60
20736;BMP180;10528;52.124;5.196;2022-11-15T01:15:21;100651.00;;;13.60
20736;BMP180;10528;52.124;5.196;2022-11-15T01:18:07;100662.00;;;13.60
20736;BMP180;10528;52.124;5.196;2022-11-15T01:20:52;100655.00;;;13.60
20736;BMP180;10528;52.124;5.196;2022-11-15T01:23:38;100646.00;;;13.60
20736;BMP180;10528;52.124;5.196;2022-11-15T01:26:24;100662.00;;;13.60
20736;BMP180;10528;52.124;5.196;2022-11-15T01:29:10;100659.00;;;13.60
20736;BMP180;10528;52.124;5.196;2022-11-15T01:31:56;100666.00;;;13.70
20736;BMP180;10528;52.124;5.196;2022-11-15T01:34:41;100660.00;;;13.70
20736;BMP180;10528;52.124;5.196;2022-11-15T01:37:27;100649.00;;;13.70
20736;BMP180;10528;52.124;5.196;2022-11-15T01:40:12;100654.00;;;13.70
20736;BMP180;10528;52.124;5.196;2022-11-15T01:42:58;100645.00;;;13.70
20736;BMP180;10528;52.124;5.196;2022-11-15T01:45:47;100636.00;;;13.70
20736;BMP180;10528;52.124;5.196;2022-11-15T01:48:36;100643.00;;;13.80
20736;BMP180;10528;52.124;5.196;2022-11-15T01:51:25;100642.00;;;13.80
20736;BMP180;10528;52.124;5.196;2022-11-15T01:54:17;100640.00;;;13.80
20736;BMP180;10528;52.124;5.196;2022-11-15T01:57:10;100644.00;;;13.80
20736;BMP180;10528;52.124;5.196;2022-11-15T01:59:58;100644.00;;;13.80
20736;BMP180;10528;52.124;5.196;2022-11-15T02:02:45;100639.00;;;13.90
20736;BMP180;10528;52.124;5.196;2022-11-15T02:05:31;100633.00;;;13.90
20736;BMP180;10528;52.124;5.196;2022-11-15T02:08:17;100627.00;;;13.90
20736;BMP180;10528;52.124;5.196;2022-11-15T02:11:08;100627.00;;;13.90
20736;BMP180;10528;52.124;5.196;2022-11-15T02:13:56;100614.00;;;14.00
20736;BMP180;10528;52.124;5.196;2022-11-15T02:17:02;100622.00;;;14.00
20736;BMP180;10528;52.124;5.196;2022-11-15T02:27:21;100599.00;;;14.10
20736;BMP180;10528;52.124;5.196;2022-11-15T02:33:35;100583.00;;;14.10
20736;BMP180;10528;52.124;5.196;2022-11-15T02:36:52;100586.00;;;14.10
20736;BMP180;10528;52.124;5.196;2022-11-15T02:39:41;100582.00;;;14.10
20736;BMP180;10528;52.124;5.196;2022-11-15T02:42:36;100573.00;;;14.10
20736;BMP180;10528;52.124;5.196;2022-11-15T02:45:51;100577.00;;;14.20
20736;BMP180;10528;52.124;5.196;2022-11-15T02:48:40;100567.00;;;14.20
20736;BMP180;10528;52.124;5.196;2022-11-15T02:51:26;100554.00;;;14.30
20736;BMP180;10528;52.124;5.196;2022-11-15T02:54:22;100562.00;;;14.30
20736;BMP180;10528;52.124;5.196;2022-11-15T02:57:14;100555.00;;;14.30
20736;BMP180;10528;52.124;5.196;2022-11-15T03:03:24;100553.00;;;14.30
20736;BMP180;10528;52.124;5.196;2022-11-15T03:12:50;100557.00;;;14.40
20736;BMP180;10528;52.124;5.196;2022-11-15T03:15:42;100559.00;;;14.40
20736;BMP180;10528;52.124;5.196;2022-11-15T03:18:34;100559.00;;;14.40
20736;BMP180;10528;52.124;5.196;2022-11-15T03:21:23;100554.00;;;14.50
20736;BMP180;10528;52.124;5.196;2022-11-15T03:24:10;100558.00;;;14.50
20736;BMP180;10528;52.124;5.196;2022-11-15T03:27:00;100556.00;;;14.50
20736;BMP180;10528;52.124;5.196;2022-11-15T03:29:53;100554.00;;;14.60
20736;BMP180;10528;52.124;5.196;2022-11-15T03:32:47;100559.00;;;14.60
20736;BMP180;10528;52.124;5.196;2022-11-15T03:35:44;100560.00;;;14.60
20736;BMP180;10528;52.124;5.196;2022-11-15T03:38:33;100557.00;;;14.60
20736;BMP180;10528;52.124;5.196;2022-11-15T03:41:39;100565.00;;;14.70
20736;BMP180;10528;52.124;5.196;2022-11-15T03:50:30;100561.00;;;14.70
20736;BMP180;10528;52.124;5.196;2022-11-15T03:53:17;100552.00;;;14.80
20736;BMP180;10528;52.124;5.196;2022-11-15T03:56:02;100561.00;;;14.80
20736;BMP180;10528;52.124;5.196;2022-11-15T03:58:48;100544.00;;;14.80
20736;BMP180;10528;52.124;5.196;2022-11-15T04:01:33;100553.00;;;14.90
20736;BMP180;10528;52.124;5.196;2022-11-15T04:04:19;100557.00;;;14.90
20736;BMP180;10528;52.124;5.196;2022-11-15T04:07:05;100553.00;;;14.90
20736;BMP180;10528;52.124;5.196;2022-11-15T04:09:50;100541.00;;;15.00
20736;BMP180;10528;52.124;5.196;2022-11-15T04:12:47;100550.00;;;15.00
20736;BMP180;10528;52.124;5.196;2022-11-15T04:15:34;100548.00;;;15.00
20736;BMP180;10528;52.124;5.196;2022-11-15T04:18:19;100543.00;;;15.10
20736;BMP180;10528;52.124;5.196;2022-11-15T04:21:05;100544.00;;;15.10
20736;BMP180;10528;52.124;5.196;2022-11-15T04:24:09;100544.00;;;15.10
20736;BMP180;10528;52.124;5.196;2022-11-15T04:26:57;100535.00;;;15.10
20736;BMP180;10528;52.124;5.196;2022-11-15T04:29:43;100536.00;;;15.10
20736;BMP180;10528;52.124;5.196;2022-11-15T04:32:28;100532.00;;;15.10
20736;BMP180;10528;52.124;5.196;2022-11-15T04:35:14;100532.00;;;15.20
20736;BMP180;10528;52.124;5.196;2022-11-15T04:38:00;100531.00;;;15.20
20736;BMP180;10528;52.124;5.196;2022-11-15T04:40:46;100523.00;;;15.20
20736;BMP180;10528;52.124;5.196;2022-11-15T04:43:32;100522.00;;;15.20
20736;BMP180;10528;52.124;5.196;2022-11-15T04:46:18;100528.00;;;15.20
20736;BMP180;10528;52.124;5.196;2022-11-15T04:49:03;100522.00;;;15.30
20736;BMP180;10528;52.124;5.196;2022-11-15T04:51:49;100537.00;;;15.30
20736;BMP180;10528;52.124;5.196;2022-11-15T04:54:34;100539.00;;;15.30
20736;BMP180;10528;52.124;5.196;2022-11-15T04:57:20;100532.00;;;15.30
20736;BMP180;10528;52.124;5.196;2022-11-15T05:00:12;100537.00;;;15.30
20736;BMP180;10528;52.124;5.196;2022-11-15T05:02:58;100539.00;;;15.40
20736;BMP180;10528;52.124;5.196;2022-11-15T05:06:02;100542.00;;;15.40
20736;BMP180;10528;52.124;5.196;2022-11-15T05:08:48;100540.00;;;15.40
20736;BMP180;10528;52.124;5.196;2022-11-15T05:11:33;100549.00;;;15.40
20736;BMP180;10528;52.124;5.196;2022-11-15T05:14:19;100552.00;;;15.40
20736;BMP180;10528;52.124;5.196;2022-11-15T05:17:04;100551.00;;;15.40
20736;BMP180;10528;52.124;5.196;2022-11-15T05:19:50;100557.00;;;15.50
20736;BMP180;10528;52.124;5.196;2022-11-15T05:22:37;100554.00;;;15.50
20736;BMP180;10528;52.124;5.196;2022-11-15T05:25:23;100547.00;;;15.50
20736;BMP180;10528;52.124;5.196;2022-11-15T05:28:08;100537.00;;;15.50
20736;BMP180;10528;52.124;5.196;2022-11-15T05:31:08;100551.00;;;15.60
20736;BMP180;10528;52.124;5.196;2022-11-15T05:33:55;100544.00;;;15.60
20736;BMP180;10528;52.124;5.196;2022-11-15T05:36:43;100549.00;;;15.60
20736;BMP180;10528;52.124;5.196;2022-11-15T05:39:29;100553.00;;;15.60
20736;BMP180;10528;52.124;5.196;2022-11-15T05:42:16;100550.00;;;15.70
20736;BMP180;10528;52.124;5.196;2022-11-15T05:45:05;100542.00;;;15.70
20736;BMP180;10528;52.124;5.196;2022-11-15T05:47:52;100554.00;;;15.70
20736;BMP180;10528;52.124;5.196;2022-11-15T05:50:43;100554.00;;;15.70
20736;BMP180;10528;52.124;5.196;2022-11-15T05:53:30;100564.00;;;15.70
20736;BMP180;10528;52.124;5.196;2022-11-15T05:56:16;100550.00;;;15.80
20736;BMP180;10528;52.124;5.196;2022-11-15T05:59:02;100565.00;;;15.80
20736;BMP180;10528;52.124;5.196;2022-11-15T06:01:48;100559.00;;;15.80
20736;BMP180;10528;52.124;5.196;2022-11-15T06:04:34;100571.00;;;15.80
20736;BMP180;10528;52.124;5.196;2022-11-15T06:07:19;100573.00;;;15.90
20736;BMP180;10528;52.124;5.196;2022-11-15T06:10:05;100568.00;;;15.90
20736;BMP180;10528;52.124;5.196;2022-11-15T06:13:02;100561.00;;;15.90
20736;BMP180;10528;52.124;5.196;2022-11-15T06:15:48;100562.00;;;15.90
20736;BMP180;10528;52.124;5.196;2022-11-15T06:18:34;100573.00;;;15.90
20736;BMP180;10528;52.124;5.196;2022-11-15T06:21:20;100574.00;;;16.00
20736;BMP180;10528;52.124;5.196;2022-11-15T06:24:06;100577.00;;;16.00
20736;BMP180;10528;52.124;5.196;2022-11-15T06:26:52;100571.00;;;16.00
20736;BMP180;10528;52.124;5.196;2022-11-15T06:29:37;100580.00;;;16.00
20736;BMP180;10528;52.124;5.196;2022-11-15T06:32:23;100594.00;;;16.00
20736;BMP180;10528;52.124;5.196;2022-11-15T06:35:08;100567.00;;;16.00
20736;BMP180;10528;52.124;5.196;2022-11-15T06:37:54;100589.00;;;16.00
20736;BMP180;10528;52.124;5.196;2022-11-15T06:40:39;100586.00;;;16.10
20736;BMP180;10528;52.124;5.196;2022-11-15T06:43:25;100579.00;;;16.10
20736;BMP180;10528;52.124;5.196;2022-11-15T06:46:10;100586.00;;;16.10
20736;BMP180;10528;52.124;5.196;2022-11-15T06:48:56;100592.00;;;16.10
20736;BMP180;10528;52.124;5.196;2022-11-15T06:51:42;100598.00;;;16.10
20736;BMP180;10528;52.124;5.196;2022-11-15T06:54:27;100604.00;;;16.10
20736;BMP180;10528;52.124;5.196;2022-11-15T06:57:12;100605.00;;;16.10
20736;BMP180;10528;52.124;5.196;2022-11-15T06:59:58;100603.00;;;16.10
20736;BMP180;10528;52.124;5.196;2022-11-15T07:02:44;100610.00;;;16.10
20736;BMP180;10528;52.124;5.196;2022-11-15T07:05:29;100614.00;;;16.10
20736;BMP180;10528;52.124;5.196;2022-11-15T07:08:15;100608.00;;;16.10
20736;BMP180;10528;52.124;5.196;2022-11-15T07:11:05;100616.00;;;16.10
20736;BMP180;10528;52.124;5.196;2022-11-15T07:13:50;100610.00;;;16.20
20736;BMP180;10528;52.124;5.196;2022-11-15T07:16:37;100618.00;;;16.20
20736;BMP180;10528;52.124;5.196;2022-11-15T07:19:22;100614.00;;;16.20
20736;BMP180;10528;52.124;5.196;2022-11-15T07:22:08;100617.00;;;16.20
20736;BMP180;10528;52.124;5.196;2022-11-15T07:24:53;100609.00;;;16.20
20736;BMP180;10528;52.124;5.196;2022-11-15T07:27:39;100613.00;;;16.20
20736;BMP180;10528;52.124;5.196;2022-11-15T07:30:26;100625.00;;;16.20
20736;BMP180;10528;52.124;5.196;2022-11-15T07:33:12;100624.00;;;16.20
20736;BMP180;10528;52.124;5.196;2022-11-15T07:36:06;100619.00;;;16.20
20736;BMP180;10528;52.124;5.196;2022-11-15T07:38:52;100623.00;;;16.20
20736;BMP180;10528;52.124;5.196;2022-11-15T07:41:37;100609.00;;;16.30
20736;BMP180;10528;52.124;5.196;2022-11-15T07:44:25;100598.00;;;16.30
20736;BMP180;10528;52.124;5.196;2022-11-15T07:47:10;100592.00;;;16.30
20736;BMP180;10528;52.124;5.196;2022-11-15T07:49:55;100602.00;;;16.30
20736;BMP180;10528;52.124;5.196;2022-11-15T07:52:41;100609.00;;;16.30
20736;BMP180;10528;52.124;5.196;2022-11-15T07:55:28;100607.00;;;16.30
20736;BMP180;10528;52.124;5.196;2022-11-15T07:58:15;100608.00;;;16.20
20736;BMP180;10528;52.124;5.196;2022-11-15T08:01:09;100610.00;;;16.30
20736;BMP180;10528;52.124;5.196;2022-11-15T08:03:55;100599.00;;;16.30
20736;BMP180;10528;52.124;5.196;2022-11-15T08:06:40;100603.00;;;16.30
20736;BMP180;10528;52.124;5.196;2022-11-15T08:09:26;100601.00;;;16.30
20736;BMP180;10528;52.124;5.196;2022-11-15T08:12:11;100591.00;;;16.30
20736;BMP180;10528;52.124;5.196;2022-11-15T08:14:57;100594.00;;;16.30
20736;BMP180;10528;52.124;5.196;2022-11-15T08:17:43;100598.00;;;16.30
20736;BMP180;10528;52.124;5.196;2022-11-15T08:20:30;100598.00;;;16.40
20736;BMP180;10528;52.124;5.196;2022-11-15T08:23:15;100594.00;;;16.40
20736;BMP180;10528;52.124;5.196;2022-11-15T08:26:03;100589.00;;;16.40
20736;BMP180;10528;52.124;5.196;2022-11-15T08:28:49;100586.00;;;16.40
20736;BMP180;10528;52.124;5.196;2022-11-15T08:31:36;100595.00;;;16.40
20736;BMP180;10528;52.124;5.196;2022-11-15T08:34:22;100581.00;;;16.50
20736;BMP180;10528;52.124;5.196;2022-11-15T08:37:07;100575.00;;;16.50
20736;BMP180;10528;52.124;5.196;2022-11-15T08:39:52;100574.00;;;16.50
20736;BMP180;10528;52.124;5.196;2022-11-15T08:42:38;100564.00;;;16.50
20736;BMP180;10528;52.124;5.196;2022-11-15T08:45:24;100561.00;;;16.50
20736;BMP180;10528;52.124;5.196;2022-11-15T08:48:09;100558.00;;;16.50
20736;BMP180;10528;52.124;5.196;2022-11-15T08:50:56;100551.00;;;16.60
20736;BMP180;10528;52.124;5.196;2022-11-15T08:53:42;100545.00;;;16.60
20736;BMP180;10528;52.124;5.196;2022-11-15T08:56:28;100563.00;;;16.60
20736;BMP180;10528;52.124;5.196;2022-11-15T08:59:13;100563.00;;;16.60
20736;BMP180;10528;52.124;5.196;2022-11-15T09:02:00;100574.00;;;16.60
20736;BMP180;10528;52.124;5.196;2022-11-15T09:04:45;100571.00;;;16.70
20736;BMP180;10528;52.124;5.196;2022-11-15T09:07:31;100569.00;;;16.70
20736;BMP180;10528;52.124;5.196;2022-11-15T09:10:17;100562.00;;;16.70
20736;BMP180;10528;52.124;5.196;2022-11-15T09:13:02;100563.00;;;16.70
20736;BMP180;10528;52.124;5.196;2022-11-15T09:15:48;100560.00;;;16.80
20736;BMP180;10528;52.124;5.196;2022-11-15T09:18:34;100559.00;;;16.80
20736;BMP180;10528;52.124;5.196;2022-11-15T09:21:20;100553.00;;;16.80
20736;BMP180;10528;52.124;5.196;2022-11-15T09:24:06;100553.00;;;16.90
20736;BMP180;10528;52.124;5.196;2022-11-15T09:26:51;100549.00;;;16.90
20736;BMP180;10528;52.124;5.196;2022-11-15T09:29:37;100550.00;;;17.00
20736;BMP180;10528;52.124;5.196;2022-11-15T09:32:23;100539.00;;;17.00
20736;BMP180;10528;52.124;5.196;2022-11-15T09:35:08;100537.00;;;17.00
20736;BMP180;10528;52.124;5.196;2022-11-15T09:37:54;100540.00;;;17.00
20736;BMP180;10528;52.124;5.196;2022-11-15T09:40:41;100525.00;;;17.10
20736;BMP180;10528;52.124;5.196;2022-11-15T09:50:12;100549.00;;;17.20
20736;BMP180;10528;52.124;5.196;2022-11-15T09:52:43;100549.00;;;17.20
20736;BMP180;10528;52.124;5.196;2022-11-15T09:55:13;100541.00;;;17.30
20736;BMP180;10528;52.124;5.196;2022-11-15T10:00:40;100547.00;;;17.40
20736;BMP180;10528;52.124;5.196;2022-11-15T10:03:28;100546.00;;;17.40
20736;BMP180;10528;52.124;5.196;2022-11-15T10:06:02;100530.00;;;17.40
20736;BMP180;10528;52.124;5.196;2022-11-15T10:11:35;100530.00;;;17.50
20736;BMP180;10528;52.124;5.196;2022-11-15T10:14:14;100533.00;;;17.50
20736;BMP180;10528;52.124;5.196;2022-11-15T10:20:14;100519.00;;;17.60
20736;BMP180;10528;52.124;5.196;2022-11-15T10:22:56;100513.00;;;17.60
20736;BMP180;10528;52.124;5.196;2022-11-15T10:25:29;100522.00;;;17.60
20736;BMP180;10528;52.124;5.196;2022-11-15T10:28:14;100519.00;;;17.60
20736;BMP180;10528;52.124;5.196;2022-11-15T10:30:54;100510.00;;;17.60
20736;BMP180;10528;52.124;5.196;2022-11-15T10:33:37;100506.00;;;17.60
20736;BMP180;10528;52.124;5.196;2022-11-15T10:36:19;100499.00;;;17.60
20736;BMP180;10528;52.124;5.196;2022-11-15T10:41:30;100502.00;;;17.60
20736;BMP180;10528;52.124;5.196;2022-11-15T10:44:22;100488.00;;;17.60
20736;BMP180;10528;52.124;5.196;2022-11-15T10:49:29;100472.00;;;17.60
20736;BMP180;10528;52.124;5.196;2022-11-15T10:52:00;100479.00;;;17.60
20736;BMP180;10528;52.124;5.196;2022-11-15T10:54:38;100459.00;;;17.70
20736;BMP180;10528;52.124;5.196;2022-11-15T10:57:17;100466.00;;;17.70
20736;BMP180;10528;52.124;5.196;2022-11-15T11:00:27;100458.00;;;17.70
20736;BMP180;10528;52.124;5.196;2022-11-15T11:10:38;100449.00;;;17.80
20736;BMP180;10528;52.124;5.196;2022-11-15T11:16:23;100445.00;;;17.90
20736;BMP180;10528;52.124;5.196;2022-11-15T11:24:56;100447.00;;;17.90
20736;BMP180;10528;52.124;5.196;2022-11-15T11:27:36;100448.00;;;17.90
20736;BMP180;10528;52.124;5.196;2022-11-15T11:33:20;100453.00;;;17.90
20736;BMP180;10528;52.124;5.196;2022-11-15T11:36:45;100433.00;;;17.90
20736;BMP180;10528;52.124;5.196;2022-11-15T11:42:30;100433.00;;;18.00
20736;BMP180;10528;52.124;5.196;2022-11-15T11:48:13;100439.00;;;18.00
20736;BMP180;10528;52.124;5.196;2022-11-15T11:50:44;100423.00;;;18.00
20736;BMP180;10528;52.124;5.196;2022-11-15T11:53:36;100403.00;;;18.00
20736;BMP180;10528;52.124;5.196;2022-11-15T11:56:27;100387.00;;;18.00
20736;BMP180;10528;52.124;5.196;2022-11-15T12:01:43;100377.00;;;18.00
20736;BMP180;10528;52.124;5.196;2022-11-15T12:04:34;100377.00;;;18.00
20736;BMP180;10528;52.124;5.196;2022-11-15T12:07:17;100379.00;;;18.00
20736;BMP180;10528;52.124;5.196;2022-11-15T12:09:57;100384.00;;;18.00
20736;BMP180;10528;52.124;5.196;2022-11-15T12:17:37;100361.00;;;18.00
20736;BMP180;10528;52.124;5.196;2022-11-15T12:20:23;100350.00;;;18.00
20736;BMP180;10528;52.124;5.196;2022-11-15T12:23:03;100346.00;;;18.00
20736;BMP180;10528;52.124;5.196;2022-11-15T12:25:57;100342.00;;;18.10
20736;BMP180;10528;52.124;5.196;2022-11-15T12:28:45;100344.00;;;18.10
20736;BMP180;10528;52.124;5.196;2022-11-15T12:31:41;100341.00;;;18.10
20736;BMP180;10528;52.124;5.196;2022-11-15T12:36:49;100320.00;;;18.10
20736;BMP180;10528;52.124;5.196;2022-11-15T12:39:18;100315.00;;;18.10
20736;BMP180;10528;52.124;5.196;2022-11-15T12:47:25;100314.00;;;18.10
20736;BMP180;10528;52.124;5.196;2022-11-15T12:49:50;100297.00;;;18.10
20736;BMP180;10528;52.124;5.196;2022-11-15T12:52:19;100291.00;;;18.20
20736;BMP180;10528;52.124;5.196;2022-11-15T12:54:58;100284.00;;;18.20
20736;BMP180;10528;52.124;5.196;2022-11-15T12:57:33;100287.00;;;18.20
20736;BMP180;10528;52.124;5.196;2022-11-15T13:03:22;100278.00;;;18.20
20736;BMP180;10528;52.124;5.196;2022-11-15T13:05:58;100282.00;;;18.20
20736;BMP180;10528;52.124;5.196;2022-11-15T13:08:40;100275.00;;;18.20
20736;BMP180;10528;52.124;5.196;2022-11-15T13:11:44;100275.00;;;18.20
20736;BMP180;10528;52.124;5.196;2022-11-15T13:15:51;100271.00;;;18.20
20736;BMP180;10528;52.124;5.196;2022-11-15T13:17:55;100255.00;;;18.20
20736;BMP180;10528;52.124;5.196;2022-11-15T13:20:30;100260.00;;;18.20
20736;BMP180;10528;52.124;5.196;2022-11-15T13:23:15;100249.00;;;18.20
20736;BMP180;10528;52.124;5.196;2022-11-15T13:28:48;100246.00;;;18.20
20736;BMP180;10528;52.124;5.196;2022-11-15T13:31:36;100244.00;;;18.20
20736;BMP180;10528;52.124;5.196;2022-11-15T13:34:36;100239.00;;;18.20
20736;BMP180;10528;52.124;5.196;2022-11-15T13:39:49;100234.00;;;18.10
20736;BMP180;10528;52.124;5.196;2022-11-15T13:42:19;100226.00;;;18.10
20736;BMP180;10528;52.124;5.196;2022-11-15T13:45:00;100227.00;;;18.10
20736;BMP180;10528;52.124;5.196;2022-11-15T13:47:30;100223.00;;;18.10
20736;BMP180;10528;52.124;5.196;2022-11-15T13:49:59;100219.00;;;18.00
20736;BMP180;10528;52.124;5.196;2022-11-15T13:52:35;100222.00;;;18.00
20736;BMP180;10528;52.124;5.196;2022-11-15T13:55:15;100214.00;;;18.00
20736;BMP180;10528;52.124;5.196;2022-11-15T13:58:04;100212.00;;;18.00
20736;BMP180;10528;52.124;5.196;2022-11-15T14:00:42;100199.00;;;18.00
20736;BMP180;10528;52.124;5.196;2022-11-15T14:03:18;100206.00;;;18.00
20736;BMP180;10528;52.124;5.196;2022-11-15T14:06:09;100194.00;;;17.90
20736;BMP180;10528;52.124;5.196;2022-11-15T14:08:40;100194.00;;;17.90
20736;BMP180;10528;52.124;5.196;2022-11-15T14:11:19;100184.00;;;17.90
20736;BMP180;10528;52.124;5.196;2022-11-15T14:16:37;100181.00;;;17.90
20736;BMP180;10528;52.124;5.196;2022-11-15T14:19:08;100173.00;;;17.90
20736;BMP180;10528;52.124;5.196;2022-11-15T14:21:36;100169.00;;;17.80
20736;BMP180;10528;52.124;5.196;2022-11-15T14:24:19;100168.00;;;17.80
20736;BMP180;10528;52.124;5.196;2022-11-15T14:26:47;100164.00;;;17.80
20736;BMP180;10528;52.124;5.196;2022-11-15T14:29:29;100158.00;;;17.80
20736;BMP180;10528;52.124;5.196;2022-11-15T14:32:20;100165.00;;;17.80
20736;BMP180;10528;52.124;5.196;2022-11-15T14:35:02;100153.00;;;17.80
20736;BMP180;10528;52.124;5.196;2022-11-15T14:37:32;100137.00;;;17.80
20736;BMP180;10528;52.124;5.196;2022-11-15T14:40:05;100141.00;;;17.80
20736;BMP180;10528;52.124;5.196;2022-11-15T14:42:32;100140.00;;;17.80
20736;BMP180;10528;52.124;5.196;2022-11-15T14:44:59;100133.00;;;17.80
20736;BMP180;10528;52.124;5.196;2022-11-15T14:47:26;100138.00;;;17.80
20736;BMP180;10528;52.124;5.196;2022-11-15T14:49:53;100129.00;;;17.80
20736;BMP180;10528;52.124;5.196;2022-11-15T14:52:31;100118.00;;;17.80
20736;BMP180;10528;52.124;5.196;2022-11-15T14:55:04;100117.00;;;17.80
20736;BMP180;10528;52.124;5.196;2022-11-15T14:57:36;100116.00;;;17.80
20736;BMP180;10528;52.124;5.196;2022-11-15T15:00:05;100104.00;;;17.80
20736;BMP180;10528;52.124;5.196;2022-11-15T15:02:39;100100.00;;;17.80
20736;BMP180;10528;52.124;5.196;2022-11-15T15:05:20;100101.00;;;17.80
20736;BMP180;10528;52.124;5.196;2022-11-15T15:07:48;100095.00;;;17.80
20736;BMP180;10528;52.124;5.196;2022-11-15T15:10:16;100080.00;;;17.80
20736;BMP180;10528;52.124;5.196;2022-11-15T15:13:05;100079.00;;;17.70
20736;BMP180;10528;52.124;5.196;2022-11-15T15:15:37;100076.00;;;17.70
20736;BMP180;10528;52.124;5.196;2022-11-15T15:18:05;100074.00;;;17.70
20736;BMP180;10528;52.124;5.196;2022-11-15T15:20:37;100059.00;;;17.70
20736;BMP180;10528;52.124;5.196;2022-11-15T15:23:15;100055.00;;;17.70
20736;BMP180;10528;52.124;5.196;2022-11-15T15:25:42;100058.00;;;17.70
20736;BMP180;10528;52.124;5.196;2022-11-15T15:28:10;100051.00;;;17.70
20736;BMP180;10528;52.124;5.196;2022-11-15T15:30:37;100054.00;;;17.70
20736;BMP180;10528;52.124;5.196;2022-11-15T15:33:04;100041.00;;;17.70
20736;BMP180;10528;52.124;5.196;2022-11-15T15:35:33;100030.00;;;17.60
20736;BMP180;10528;52.124;5.196;2022-11-15T15:38:01;100032.00;;;17.60
20736;BMP180;10528;52.124;5.196;2022-11-15T15:40:31;100027.00;;;17.60
20736;BMP180;10528;52.124;5.196;2022-11-15T15:42:59;100032.00;;;17.60
20736;BMP180;10528;52.124;5.196;2022-11-15T15:45:27;100029.00;;;17.60
20736;BMP180;10528;52.124;5.196;2022-11-15T15:47:55;100027.00;;;17.70
20736;BMP180;10528;52.124;5.196;2022-11-15T15:50:28;100021.00;;;17.70
20736;BMP180;10528;52.124;5.196;2022-11-15T15:52:58;100026.00;;;17.70
20736;BMP180;10528;52.124;5.196;2022-11-15T15:55:26;100023.00;;;17.70
20736;BMP180;10528;52.124;5.196;2022-11-15T15:57:54;100021.00;;;17.70
20736;BMP180;10528;52.124;5.196;2022-11-15T16:00:23;100020.00;;;17.70
20736;BMP180;10528;52.124;5.196;2022-11-15T16:02:52;100016.00;;;17.70
20736;BMP180;10528;52.124;5.196;2022-11-15T16:05:21;100021.00;;;17.70
20736;BMP180;10528;52.124;5.196;2022-11-15T16:07:48;100022.00;;;17.70
20736;BMP180;10528;52.124;5.196;2022-11-15T16:10:33;100008.00;;;17.70
20736;BMP180;10528;52.124;5.196;2022-11-15T16:13:03;100010.00;;;17.70
20736;BMP180;10528;52.124;5.196;2022-11-15T16:15:31;100016.00;;;17.70
20736;BMP180;10528;52.124;5.196;2022-11-15T16:18:00;100015.00;;;17.70
20736;BMP180;10528;52.124;5.196;2022-11-15T16:20:46;100011.00;;;17.70
20736;BMP180;10528;52.124;5.196;2022-11-15T16:23:18;100009.00;;;17.80
20736;BMP180;10528;52.124;5.196;2022-11-15T16:25:54;100013.00;;;17.80
20736;BMP180;10528;52.124;5.196;2022-11-15T16:28:30;99998.00;;;17.80
20736;BMP180;10528;52.124;5.196;2022-11-15T16:31:17;99999.00;;;17.80
20736;BMP180;10528;52.124;5.196;2022-11-15T16:33:46;100009.00;;;17.80
20736;BMP180;10528;52.124;5.196;2022-11-15T16:36:25;100001.00;;;17.80
20736;BMP180;10528;52.124;5.196;2022-11-15T16:38:56;100003.00;;;17.80
20736;BMP180;10528;52.124;5.196;2022-11-15T16:41:23;100010.00;;;17.80
20736;BMP180;10528;52.124;5.196;2022-11-15T16:43:50;100010.00;;;17.80
20736;BMP180;10528;52.124;5.196;2022-11-15T16:46:23;100015.00;;;17.80
20736;BMP180;10528;52.124;5.196;2022-11-15T16:48:51;100004.00;;;17.80
20736;BMP180;10528;52.124;5.196;2022-11-15T16:51:20;100012.00;;;17.80
20736;BMP180;10528;52.124;5.196;2022-11-15T16:53:47;100008.00;;;17.80
20736;BMP180;10528;52.124;5.196;2022-11-15T16:56:29;100018.00;;;17.80
20736;BMP180;10528;52.124;5.196;2022-11-15T16:58:58;100019.00;;;17.80
20736;BMP180;10528;52.124;5.196;2022-11-15T17:01:31;100018.00;;;17.80
20736;BMP180;10528;52.124;5.196;2022-11-15T17:03:59;100018.00;;;17.80
20736;BMP180;10528;52.124;5.196;2022-11-15T17:06:39;100021.00;;;17.80